Terminal Aerodrome Forecast
Issued by NWS

Home | Current Version | Previous Version | Text Only | Print | Product List | Glossary On
Versions: 1 2 3 4 5 6 7 8 9 10 11 12 13 14
000
FTUS45 KABQ 280525
TAFTCC
TAF
KTCC 280525Z 2806/2906 18015KT P6SM VCSH SCT090 BKN150
      TEMPO 2806/2808 VRB20G30KT -SHRA BKN080
     FM280900 22007KT P6SM BKN140
     FM282100 15011KT P6SM VCSH BKN080
     FM290000 07015KT P6SM VCTS BKN060CB OVC120
     FM290300 03013KT P6SM -SHRA SCT050 OVC070=

USA.gov is the U.S. government's official web portal to all federal, state and local government web resources and services.